createdAt,value
2018-06-19T00:02:01.902Z,101403.81
2018-06-19T00:05:06.242Z,101408.61
2018-06-19T00:08:10.615Z,101404.16
2018-06-19T00:11:15.120Z,101402.38
2018-06-19T00:14:19.441Z,101410.66
2018-06-19T00:17:23.718Z,101408.47
2018-06-19T00:20:28.224Z,101403.28
2018-06-19T00:23:32.648Z,101411.13
2018-06-19T00:26:37.028Z,101405.07
2018-06-19T00:29:41.447Z,101402.05
2018-06-19T00:32:45.877Z,101404.20
2018-06-19T00:35:50.295Z,101400.66
2018-06-19T00:38:54.841Z,101393.70
2018-06-19T00:41:59.113Z,101398.05
2018-06-19T00:45:03.442Z,101393.22
2018-06-19T00:48:08.562Z,101374.87
2018-06-19T00:51:12.899Z,101374.83
2018-06-19T00:54:17.292Z,101375.22
2018-06-19T00:57:21.720Z,101375.63
2018-06-19T01:00:26.042Z,101368.17
2018-06-19T01:03:30.349Z,101377.71
2018-06-19T01:06:34.832Z,101382.45
2018-06-19T01:09:39.184Z,101378.48
2018-06-19T01:12:43.644Z,101377.61
2018-06-19T01:15:47.978Z,101374.96
2018-06-19T01:18:52.366Z,101384.61
2018-06-19T01:21:56.690Z,101386.88
2018-06-19T01:25:01.006Z,101381.27
2018-06-19T01:28:05.300Z,101377.78
2018-06-19T01:31:09.460Z,101370.76
2018-06-19T01:34:13.844Z,101378.99
2018-06-19T01:37:18.235Z,101368.11
2018-06-19T01:40:22.560Z,101358.98
2018-06-19T01:43:26.898Z,101352.48
2018-06-19T01:46:31.046Z,101355.56
2018-06-19T01:49:35.315Z,101354.27
2018-06-19T01:52:39.603Z,101349.94
2018-06-19T01:55:43.868Z,101343.84
2018-06-19T01:58:48.216Z,101339.53
2018-06-19T02:01:52.624Z,101338.67
2018-06-19T02:04:57.119Z,101344.42
2018-06-19T02:08:01.516Z,101342.25
2018-06-19T02:11:05.892Z,101337.86
2018-06-19T02:14:10.190Z,101335.64
2018-06-19T02:17:14.384Z,101331.72
2018-06-19T02:20:18.742Z,101336.96
2018-06-19T02:23:23.957Z,101334.34
2018-06-19T02:26:28.344Z,101333.09
2018-06-19T02:29:32.735Z,101330.95
2018-06-19T02:32:37.065Z,101334.47
2018-06-19T02:35:41.364Z,101334.08
2018-06-19T02:38:45.663Z,101324.05
2018-06-19T02:41:50.217Z,101319.25
2018-06-19T02:44:54.517Z,101308.73
2018-06-19T02:47:58.816Z,101323.12
2018-06-19T02:51:03.193Z,101338.44
2018-06-19T02:54:07.453Z,101335.43
2018-06-19T02:57:11.742Z,101338.58
2018-06-19T03:00:16.033Z,101336.47
2018-06-19T03:03:20.328Z,101342.59
2018-06-19T03:06:24.646Z,101344.80
2018-06-19T03:09:28.998Z,101350.94
2018-06-19T03:12:33.264Z,101350.52
2018-06-19T03:15:37.633Z,101357.09
2018-06-19T03:18:41.940Z,101349.67
2018-06-19T03:21:46.239Z,101355.78
2018-06-19T03:24:50.521Z,101355.37
2018-06-19T03:27:54.893Z,101354.06
2018-06-19T03:30:58.997Z,101353.22
2018-06-19T03:34:03.318Z,101357.16
2018-06-19T03:37:07.620Z,101358.94
2018-06-19T03:40:11.948Z,101367.23
2018-06-19T03:43:16.302Z,101371.17
2018-06-19T03:46:20.628Z,101369.44
2018-06-19T03:49:24.920Z,101366.81
2018-06-19T03:52:29.959Z,101369.00
2018-06-19T03:55:34.273Z,101372.06
2018-06-19T03:58:38.580Z,101367.27
2018-06-19T04:01:42.913Z,101358.53
2018-06-19T04:04:47.263Z,101358.55
2018-06-19T04:07:51.719Z,101354.62
2018-06-19T04:10:56.099Z,101352.47
2018-06-19T04:14:00.397Z,101344.59
2018-06-19T04:17:04.628Z,101343.73
2018-06-19T04:20:08.926Z,101349.85
2018-06-19T04:23:13.250Z,101352.03
2018-06-19T04:26:17.615Z,101349.01
2018-06-19T04:29:21.887Z,101358.62
2018-06-19T04:32:26.257Z,101356.03
2018-06-19T04:35:30.529Z,101362.17
2018-06-19T04:38:34.821Z,101356.95
2018-06-19T04:41:39.081Z,101363.48
2018-06-19T04:44:43.455Z,101370.05
2018-06-19T04:47:47.827Z,101373.98
2018-06-19T04:50:52.169Z,101382.27
2018-06-19T04:53:56.445Z,101385.74
2018-06-19T04:57:00.799Z,101376.98
2018-06-19T05:00:05.532Z,101390.12
2018-06-19T05:03:09.821Z,101392.73
2018-06-19T05:06:14.145Z,101395.38
2018-06-19T05:09:18.506Z,101388.39
2018-06-19T05:12:22.776Z,101386.68
2018-06-19T05:15:27.373Z,101388.42
2018-06-19T05:18:31.727Z,101388.46
2018-06-19T05:21:36.091Z,101398.09
2018-06-19T05:24:40.513Z,101403.75
2018-06-19T05:27:44.824Z,101405.07
2018-06-19T05:30:49.147Z,101404.62
2018-06-19T05:33:53.441Z,101403.34
2018-06-19T05:36:57.758Z,101406.83
2018-06-19T05:40:02.122Z,101409.88
2018-06-19T05:43:06.514Z,101403.80
2018-06-19T05:46:10.914Z,101407.31
2018-06-19T05:49:15.259Z,101404.27
2018-06-19T05:52:19.550Z,101402.09
2018-06-19T05:55:23.913Z,101406.47
2018-06-19T05:58:28.202Z,101408.22
2018-06-19T06:01:32.502Z,101412.19
2018-06-19T06:04:36.785Z,101419.21
2018-06-19T06:07:41.079Z,101412.67
2018-06-19T06:10:45.418Z,101417.49
2018-06-19T06:13:49.552Z,101428.88
2018-06-19T06:16:53.834Z,101431.50
2018-06-19T06:19:58.165Z,101436.33
2018-06-19T06:23:02.450Z,101423.62
2018-06-19T06:26:06.913Z,101424.52
2018-06-19T06:29:11.277Z,101431.95
2018-06-19T06:32:15.644Z,101433.70
2018-06-19T06:35:20.104Z,101438.53
2018-06-19T06:38:24.381Z,101447.72
2018-06-19T06:41:28.759Z,101438.50
2018-06-19T06:44:33.013Z,101445.10
2018-06-19T06:47:37.497Z,101449.46
2018-06-19T06:50:41.758Z,101451.67
2018-06-19T06:53:46.139Z,101452.56
2018-06-19T06:56:50.452Z,101456.95
2018-06-19T06:59:54.791Z,101460.00
2018-06-19T07:02:59.203Z,101470.95
2018-06-19T07:06:03.624Z,101468.33
2018-06-19T07:09:10.965Z,101477.09
2018-06-19T07:12:15.441Z,101470.96
2018-06-19T07:15:19.691Z,101467.88
2018-06-19T07:18:24.084Z,101476.63
2018-06-19T07:21:28.646Z,101476.66
2018-06-19T07:24:33.055Z,101477.98
2018-06-19T07:27:37.462Z,101481.49
2018-06-19T07:30:41.820Z,101486.29
2018-06-19T07:33:46.078Z,101486.72
2018-06-19T07:36:50.442Z,101502.08
2018-06-19T07:39:54.745Z,101505.14
2018-06-19T07:43:03.140Z,101513.02
2018-06-19T07:46:07.459Z,101520.91
2018-06-19T07:49:11.809Z,101523.92
2018-06-19T07:52:16.094Z,101533.12
2018-06-19T07:55:20.454Z,101540.99
2018-06-19T07:58:24.756Z,101551.04
2018-06-19T08:01:29.098Z,101562.86
2018-06-19T08:04:33.489Z,101581.19
2018-06-19T08:07:37.820Z,101568.95
2018-06-19T08:10:42.146Z,101578.58
2018-06-19T08:13:46.605Z,101580.76
2018-06-19T08:16:50.980Z,101602.69
2018-06-19T08:19:55.343Z,101593.83
2018-06-19T08:22:59.617Z,101587.64
2018-06-19T08:26:03.982Z,101581.93
2018-06-19T08:29:08.376Z,101581.50
2018-06-19T08:32:12.669Z,101590.70
2018-06-19T08:35:17.012Z,101594.30
2018-06-19T08:38:21.364Z,101586.05
2018-06-19T08:41:25.644Z,101588.36
2018-06-19T08:44:30.005Z,101598.50
2018-06-19T08:47:34.265Z,101590.16
2018-06-19T08:50:38.645Z,101594.53
2018-06-19T08:53:42.949Z,101596.24
2018-06-19T08:56:47.324Z,101591.86
2018-06-19T08:59:51.609Z,101595.75
2018-06-19T09:02:55.929Z,101607.66
2018-06-19T09:06:00.225Z,101617.36
2018-06-19T09:09:06.558Z,101618.66
2018-06-19T09:12:10.841Z,101623.48
2018-06-19T09:15:15.195Z,101614.27
2018-06-19T09:18:19.545Z,101613.81
2018-06-19T09:21:23.892Z,101607.16
2018-06-19T09:24:28.239Z,101611.49
2018-06-19T09:27:32.560Z,101616.89
2018-06-19T09:30:36.852Z,101623.05
2018-06-19T09:33:41.194Z,101622.59
2018-06-19T09:36:45.525Z,101623.05
2018-06-19T09:39:49.927Z,101622.61
2018-06-19T09:42:54.233Z,101615.58
2018-06-19T09:45:58.558Z,101613.42
2018-06-19T09:49:02.877Z,101623.51
2018-06-19T09:52:07.518Z,101627.89
2018-06-19T09:55:11.855Z,101624.81
2018-06-19T09:58:16.181Z,101629.61
2018-06-19T10:01:20.551Z,101623.46
2018-06-19T10:04:24.874Z,101616.05
2018-06-19T10:07:29.217Z,101627.83
2018-06-19T10:10:33.582Z,101624.23
2018-06-19T10:13:37.869Z,101615.33
2018-06-19T10:16:42.246Z,101628.57
2018-06-19T10:19:46.674Z,101637.45
2018-06-19T10:22:51.233Z,101643.19
2018-06-19T10:25:55.523Z,101631.71
2018-06-19T10:29:00.263Z,101644.04
2018-06-19T10:32:04.628Z,101640.41
2018-06-19T10:35:08.936Z,101652.77
2018-06-19T10:38:13.256Z,101653.59
2018-06-19T10:41:17.592Z,101657.13
2018-06-19T10:44:21.896Z,101664.92
2018-06-19T10:47:26.272Z,101670.13
2018-06-19T10:50:30.568Z,101668.80
2018-06-19T10:53:34.904Z,101667.81
2018-06-19T10:56:39.309Z,101667.99
2018-06-19T10:59:43.822Z,101678.66
2018-06-19T11:02:48.388Z,101674.23
2018-06-19T11:05:52.784Z,101679.88
2018-06-19T11:08:57.040Z,101680.64
2018-06-19T11:12:01.401Z,101677.18
2018-06-19T11:15:06.051Z,101675.45
2018-06-19T11:18:10.478Z,101685.54
2018-06-19T11:21:14.797Z,101695.23
2018-06-19T11:24:19.116Z,101699.59
2018-06-19T11:27:23.414Z,101685.96
2018-06-19T11:30:27.720Z,101697.70
2018-06-19T11:33:32.040Z,101697.72
2018-06-19T11:36:36.506Z,101690.64
2018-06-19T11:39:40.881Z,101702.91
2018-06-19T11:42:45.503Z,101704.25
2018-06-19T11:45:49.849Z,101703.91
2018-06-19T11:48:54.182Z,101708.32
2018-06-19T11:51:58.540Z,101719.76
2018-06-19T11:55:03.003Z,101711.02
2018-06-19T11:58:07.338Z,101711.00
2018-06-19T12:01:11.715Z,101713.71
2018-06-19T12:04:16.130Z,101715.85
2018-06-19T12:07:20.421Z,101719.31
2018-06-19T12:10:24.718Z,101719.14
2018-06-19T12:13:29.154Z,101716.80
2018-06-19T12:16:33.771Z,101729.23
2018-06-19T12:19:38.129Z,101735.47
2018-06-19T12:22:42.487Z,101736.84
2018-06-19T12:25:46.814Z,101739.94
2018-06-19T12:28:51.191Z,101745.19
2018-06-19T12:31:55.660Z,101747.00
2018-06-19T12:34:59.938Z,101755.50
2018-06-19T12:38:04.307Z,101755.96
2018-06-19T12:41:08.632Z,101760.22
2018-06-19T12:44:13.194Z,101758.28
2018-06-19T12:47:17.591Z,101769.27
2018-06-19T12:50:41.528Z,101762.64
2018-06-19T12:56:03.876Z,101769.75
2018-06-19T12:59:08.231Z,101769.38
2018-06-19T13:02:12.555Z,101781.25
2018-06-19T13:05:34.001Z,101779.55
2018-06-19T13:08:38.341Z,101784.86
2018-06-19T13:11:42.739Z,101780.39
2018-06-19T13:14:47.064Z,101771.16
2018-06-19T13:19:12.277Z,101783.12
2018-06-19T13:22:16.711Z,101790.64
2018-06-19T13:25:21.159Z,101792.34
2018-06-19T13:29:52.139Z,101793.64
2018-06-19T13:32:56.437Z,101785.28
2018-06-19T13:36:00.815Z,101790.57
2018-06-19T13:39:06.335Z,101795.84
2018-06-19T13:42:27.712Z,101797.14
2018-06-19T13:45:32.115Z,101794.41
2018-06-19T13:48:36.539Z,101805.46
2018-06-19T13:51:40.803Z,101806.70
2018-06-19T13:54:47.623Z,101804.94
2018-06-19T13:58:21.377Z,101811.71
2018-06-19T14:01:25.666Z,101825.72
2018-06-19T14:04:30.167Z,101824.03
2018-06-19T14:07:40.029Z,101817.41
2018-06-19T14:11:01.626Z,101826.63
2018-06-19T14:14:05.965Z,101827.97
2018-06-19T14:17:10.244Z,101834.13
2018-06-19T14:20:14.700Z,101832.78
2018-06-19T14:23:19.001Z,101841.00
2018-06-19T14:26:23.448Z,101836.73
2018-06-19T14:29:27.714Z,101838.41
2018-06-19T14:32:32.058Z,101838.91
2018-06-19T14:35:36.386Z,101847.25
2018-06-19T14:38:40.830Z,101848.53
2018-06-19T14:41:45.140Z,101856.07
2018-06-19T14:44:49.598Z,101839.72
2018-06-19T14:47:53.857Z,101857.37
2018-06-19T14:50:58.201Z,101860.48
2018-06-19T14:54:02.511Z,101861.33
2018-06-19T14:57:06.760Z,101854.66
2018-06-19T15:00:11.698Z,101851.19
2018-06-19T15:03:16.022Z,101860.87
2018-06-19T15:06:20.293Z,101867.06
2018-06-19T15:09:24.412Z,101866.58
2018-06-19T15:12:28.784Z,101866.97
2018-06-19T15:15:33.200Z,101863.89
2018-06-19T15:18:37.558Z,101865.34
2018-06-19T15:21:41.913Z,101868.22
2018-06-19T15:24:46.202Z,101880.05
2018-06-19T15:27:51.774Z,101879.56
2018-06-19T15:30:56.112Z,101874.91
2018-06-19T15:34:00.557Z,101886.53
2018-06-19T15:37:04.851Z,101890.68
2018-06-19T15:40:09.273Z,101878.73
2018-06-19T15:43:13.538Z,101876.80
2018-06-19T15:46:17.949Z,101863.97
2018-06-19T15:49:22.323Z,101870.08
2018-06-19T15:52:26.734Z,101866.95
2018-06-19T15:55:31.180Z,101873.94
2018-06-19T15:58:35.498Z,101875.83
2018-06-19T16:01:39.913Z,101864.94
2018-06-19T16:04:44.240Z,101865.88
2018-06-19T16:07:53.920Z,101862.70
2018-06-19T16:10:58.210Z,101861.88
2018-06-19T16:14:02.505Z,101864.83
2018-06-19T16:17:06.910Z,101870.57
2018-06-19T16:20:11.275Z,101875.73
2018-06-19T16:23:15.697Z,101879.77
2018-06-19T16:26:19.981Z,101870.73
2018-06-19T16:29:24.338Z,101869.83
2018-06-19T16:32:28.599Z,101866.78
2018-06-19T16:35:32.999Z,101871.18
2018-06-19T16:38:37.369Z,101871.86
2018-06-19T16:41:41.834Z,101870.42
2018-06-19T16:44:46.127Z,101877.13
2018-06-19T16:47:50.555Z,101873.98
2018-06-19T16:50:54.872Z,101877.59
2018-06-19T16:53:59.295Z,101884.41
2018-06-19T16:57:03.632Z,101882.36
2018-06-19T17:00:08.150Z,101884.17
2018-06-19T17:03:12.456Z,101885.84
2018-06-19T17:06:16.898Z,101886.39
2018-06-19T17:09:21.308Z,101894.25
2018-06-19T17:12:25.692Z,101904.86
2018-06-19T17:15:30.018Z,101901.67
2018-06-19T17:18:34.341Z,101897.77
2018-06-19T17:21:38.715Z,101903.33
2018-06-19T17:24:43.166Z,101900.45
2018-06-19T17:27:47.528Z,101907.45
2018-06-19T17:30:51.901Z,101901.66
2018-06-19T17:33:56.525Z,101897.15
2018-06-19T17:37:00.890Z,101901.43
2018-06-19T17:40:05.414Z,101905.55
2018-06-19T17:43:09.752Z,101912.02
2018-06-19T17:46:14.126Z,101903.18
2018-06-19T17:49:18.494Z,101913.56
2018-06-19T17:52:22.960Z,101916.19
2018-06-19T17:55:27.340Z,101921.73
2018-06-19T17:58:31.724Z,101907.02
2018-06-19T18:01:36.057Z,101910.05
2018-06-19T18:04:40.369Z,101908.25
2018-06-19T18:07:44.717Z,101917.82
2018-06-19T18:10:49.134Z,101920.70
2018-06-19T18:13:53.492Z,101914.48
2018-06-19T18:16:57.827Z,101919.14
2018-06-19T18:20:02.208Z,101912.98
2018-06-19T18:23:06.530Z,101907.74
2018-06-19T18:26:10.886Z,101913.36
2018-06-19T18:29:15.221Z,101911.11
2018-06-19T18:32:19.594Z,101912.86
2018-06-19T18:35:23.871Z,101907.11
2018-06-19T18:38:28.215Z,101910.44
2018-06-19T18:41:32.520Z,101913.46
2018-06-19T18:44:36.908Z,101915.50
2018-06-19T18:47:41.335Z,101921.94
2018-06-19T18:50:45.651Z,101920.45
2018-06-19T18:53:50.105Z,101912.07
2018-06-19T18:56:54.463Z,101916.64
2018-06-19T18:59:58.981Z,101914.81
2018-06-19T19:03:03.300Z,101916.91
2018-06-19T19:06:07.713Z,101909.92
2018-06-19T19:09:12.822Z,101909.45
2018-06-19T19:12:17.466Z,101901.03
2018-06-19T19:15:27.286Z,101908.49
2018-06-19T19:18:36.889Z,101911.98
2018-06-19T19:21:41.225Z,101915.83
2018-06-19T19:24:45.522Z,101917.58
2018-06-19T19:27:55.017Z,101924.03
2018-06-19T19:30:59.580Z,101924.69
2018-06-19T19:34:03.943Z,101932.50
2018-06-19T19:37:13.428Z,101932.70
2018-06-19T19:40:17.785Z,101934.78
2018-06-19T19:43:22.221Z,101946.85
2018-06-19T19:46:31.751Z,101943.17
2018-06-19T19:49:36.121Z,101954.90
2018-06-19T19:52:40.497Z,101954.80
2018-06-19T19:55:50.145Z,101967.43
2018-06-19T19:58:54.451Z,101973.87
2018-06-19T20:01:58.860Z,101978.94
2018-06-19T20:05:03.144Z,101974.87
2018-06-19T20:08:07.497Z,101971.61
2018-06-19T20:11:11.865Z,101981.14
2018-06-19T20:14:16.161Z,101992.86
2018-06-19T20:17:20.465Z,101993.12
2018-06-19T20:20:24.832Z,101993.45
2018-06-19T20:23:29.216Z,101989.85
2018-06-19T20:26:33.562Z,101991.41
2018-06-19T20:29:37.906Z,101989.98
2018-06-19T20:32:42.199Z,101986.70
2018-06-19T20:35:46.481Z,101985.38
2018-06-19T20:38:50.835Z,101987.88
2018-06-19T20:41:55.256Z,101983.41
2018-06-19T20:44:59.924Z,101981.16
2018-06-19T20:48:04.212Z,101984.95
2018-06-19T20:51:08.831Z,101982.66
2018-06-19T20:54:13.161Z,101982.98
2018-06-19T20:57:17.565Z,101972.34
2018-06-19T21:00:21.857Z,101973.13
2018-06-19T21:03:26.424Z,101968.70
2018-06-19T21:06:30.733Z,101965.23
2018-06-19T21:09:35.180Z,101964.36
2018-06-19T21:12:39.512Z,101964.05
2018-06-19T21:15:43.753Z,101957.16
2018-06-19T21:18:48.397Z,101960.14
2018-06-19T21:21:52.749Z,101960.52
2018-06-19T21:24:57.145Z,101958.59
2018-06-19T21:28:01.441Z,101956.35
2018-06-19T21:31:05.867Z,101963.19
2018-06-19T21:34:10.139Z,101961.23
2018-06-19T21:37:14.693Z,101959.36
2018-06-19T21:40:18.960Z,101955.67
2018-06-19T21:43:23.383Z,101956.33
2018-06-19T21:46:27.720Z,101967.58
2018-06-19T21:49:32.019Z,101966.67
2018-06-19T21:52:36.297Z,101971.04
2018-06-19T21:55:41.070Z,101971.99
2018-06-19T21:58:45.740Z,101975.41
2018-06-19T22:01:50.289Z,101961.72
2018-06-19T22:04:54.636Z,101968.14
2018-06-19T22:07:59.013Z,101970.62
2018-06-19T22:11:03.440Z,101975.19
2018-06-19T22:14:07.889Z,101970.96
2018-06-19T22:17:12.384Z,101971.52
2018-06-19T22:20:16.802Z,101970.41
2018-06-19T22:23:21.093Z,101966.67
2018-06-19T22:26:25.419Z,101954.16
2018-06-19T22:29:29.670Z,101960.71
2018-06-19T22:32:34.105Z,101961.14
2018-06-19T22:35:38.625Z,101959.81
2018-06-19T22:38:42.971Z,101962.88
2018-06-19T22:41:47.349Z,101956.34
2018-06-19T22:44:51.735Z,101953.73
2018-06-19T22:47:56.310Z,101954.59
2018-06-19T22:51:00.932Z,101950.26
2018-06-19T22:54:06.331Z,101949.43
2018-06-19T22:57:10.767Z,101947.64
2018-06-19T23:00:16.228Z,101948.13
2018-06-19T23:03:20.636Z,101946.34
2018-06-19T23:06:24.944Z,101945.08
2018-06-19T23:09:29.361Z,101949.11
2018-06-19T23:12:33.658Z,101947.88
2018-06-19T23:15:38.030Z,101944.40
2018-06-19T23:18:42.416Z,101941.72
2018-06-19T23:21:46.743Z,101947.02
2018-06-19T23:24:51.078Z,101931.45
2018-06-19T23:27:55.480Z,101933.99
2018-06-19T23:30:59.816Z,101926.58
2018-06-19T23:34:04.132Z,101931.33
2018-06-19T23:37:08.493Z,101934.27
2018-06-19T23:40:12.829Z,101929.84
2018-06-19T23:43:16.899Z,101933.82
2018-06-19T23:46:21.303Z,101932.69
2018-06-19T23:49:25.682Z,101926.65
2018-06-19T23:52:30.504Z,101938.34
2018-06-19T23:55:34.787Z,101938.73
2018-06-19T23:58:39.201Z,101936.06
